Terminal Aerodrome Forecast
Issued by NWS

Home | Current Version | Previous Version | Text Only | Print | Product List | Glossary On
Versions: 1 2 3 4 5 6 7 8 9 10 11 12 13 14 15 16
000
FTUS45 KFGZ 300520
TAFGCN
TAF
KGCN 300520Z 3006/3106 VRB03KT P6SM SKC
     FM301800 24008KT P6SM BKN090
     FM310200 VRB03KT P6SM FEW090=

USA.gov is the U.S. government's official web portal to all federal, state and local government web resources and services.